Time;durP1;ratioP1;P1;durP2;ratioP2;P2;SDS_P1;SDS_P2;PMS_P1;PMS_P2;Temp;Humidity;BMP_temperature;BMP_pressure;BME280_temperature;BME280_humidity;BME280_pressure;Samples;Min_cycle;Max_cycle;Signal;HPM_P1;HPM_P2
2022/12/15 00:38:42;;;;;;;;;;;;;;;;;;1767905;79;22864;-49
2022/12/15 00:41:14;;;;;;;3.50;1.80;;;;;;;;;;1763749;79;20851;-49
2022/12/15 00:43:40;;;;;;;5.07;3.37;;;;;;;;;;1772928;79;21010;-48
2022/12/15 00:48:52;;;;;;;3.15;1.85;;;;;;;;;;1767213;79;25856;-48
2022/12/15 00:51:18;;;;;;;4.27;2.77;;;;;;;;;;1759308;79;21749;-48
2022/12/15 01:21:10;;;;;;;4.47;2.20;;;;;;;;;;1772205;79;20970;-49
2022/12/15 01:23:36;;;;;;;5.47;3.10;;;;;;;;;;1768386;79;21076;-48
2022/12/15 01:26:03;;;;;;;2.73;2.00;;;;;;;;;;1768944;79;21487;-48
2022/12/15 01:28:30;;;;;;;4.43;2.00;;;;;;;;;;1766352;79;21097;-49
2022/12/15 01:30:56;;;;;;;3.60;1.77;;;;;;;;;;1767279;79;21921;-48
2022/12/15 01:33:22;;;;;;;5.80;3.10;;;;;;;;;;1768954;79;21042;-49
2022/12/15 01:35:59;;;;;;;2.30;1.37;;;;;;;;;;1771849;79;21009;-47
2022/12/15 01:38:26;;;;;;;3.60;2.47;;;;;;;;;;1769757;79;21065;-48
2022/12/15 01:40:54;;;;;;;7.20;3.07;;;;;;;;;;1770715;79;21056;-47
2022/12/15 01:43:26;;;;;;;4.93;2.70;;;;;;;;;;1767855;79;21767;-48
2022/12/15 01:46:01;;;;;;;4.80;2.77;;;;;;;;;;1769589;79;21660;-49
2022/12/15 01:48:31;;;;;;;4.17;2.50;;;;;;;;;;1770162;79;21122;-50
2022/12/15 01:51:01;;;;;;;5.23;3.33;;;;;;;;;;1770382;79;21044;-50
2022/12/15 01:53:29;;;;;;;5.37;2.97;;;;;;;;;;1770361;79;21121;-49
2022/12/15 01:55:55;;;;;;;4.67;3.03;;;;;;;;;;1771391;79;21765;-49
2022/12/15 01:58:21;;;;;;;4.80;2.47;;;;;;;;;;1769997;79;21052;-51
2022/12/15 02:00:47;;;;;;;3.80;2.67;;;;;;;;;;1773924;78;21024;-48
2022/12/15 02:03:14;;;;;;;5.43;2.77;;;;;;;;;;1774169;78;21052;-51
2022/12/15 02:05:40;;;;;;;4.30;2.60;;;;;;;;;;1779496;78;21082;-50
2022/12/15 02:08:06;;;;;;;4.23;2.10;;;;;;;;;;1772165;78;22299;-48
2022/12/15 02:10:37;;;;;;;4.67;2.97;;;;;;;;;;1772797;78;21093;-50
2022/12/15 02:13:26;;;;;;;3.73;2.27;;;;;;;;;;1774859;78;21056;-48
2022/12/15 02:16:05;;;;;;;4.37;2.43;;;;;;;;;;1776473;78;21545;-48
2022/12/15 02:18:38;;;;;;;3.73;2.23;;;;;;;;;;1707127;80;21624;-48
2022/12/15 02:21:19;;;;;;;3.20;2.17;;;;;;;;;;1748438;79;21836;-49
2022/12/15 02:24:23;;;;;;;3.37;1.80;;;;;;;;;;1780481;78;21084;-48
2022/12/15 02:27:13;;;;;;;3.53;2.20;;;;;;;;;;1779095;79;21704;-50
2022/12/15 02:29:53;;;;;;;5.23;2.60;;;;;;;;;;1775154;78;21433;-48
2022/12/15 02:32:23;;;;;;;3.17;1.87;;;;;;;;;;1774871;79;21051;-48
2022/12/15 02:35:05;;;;;;;3.93;2.10;;;;;;;;;;1779958;78;22575;-49
2022/12/15 02:37:36;;;;;;;3.20;1.57;;;;;;;;;;1777591;78;21056;-49
2022/12/15 02:40:03;;;;;;;3.10;1.87;;;;;;;;;;1779556;78;21079;-48
2022/12/15 02:47:53;;;;;;;4.43;3.10;;;;;;;;;;1663369;83;21799;-49
2022/12/15 02:50:40;;;;;;;5.67;2.23;;;;;;;;;;1656238;84;21856;-50
2022/12/15 02:53:22;;;;;;;3.43;1.87;;;;;;;;;;1663180;84;21319;-50
2022/12/15 02:55:52;;;;;;;3.23;2.20;;;;;;;;;;1667246;84;21578;-48
2022/12/15 02:58:43;;;;;;;4.57;2.13;;;;;;;;;;1665095;84;21055;-47
2022/12/15 03:01:24;;;;;;;3.33;1.77;;;;;;;;;;1649744;84;21504;-49
2022/12/15 03:03:50;;;;;;;7.83;2.63;;;;;;;;;;1664410;84;21867;-49
2022/12/15 03:06:17;;;;;;;3.80;2.30;;;;;;;;;;1661391;84;21498;-51
2022/12/15 03:08:44;;;;;;;4.90;2.17;;;;;;;;;;1668874;84;21563;-49
2022/12/15 03:11:10;;;;;;;3.43;1.83;;;;;;;;;;1665836;84;21115;-50
2022/12/15 03:13:37;;;;;;;4.57;2.37;;;;;;;;;;1663691;84;21103;-48
2022/12/15 03:16:03;;;;;;;3.20;2.20;;;;;;;;;;1664983;84;22743;-49
2022/12/15 03:18:29;;;;;;;2.40;1.40;;;;;;;;;;1665775;84;21103;-49
2022/12/15 03:20:55;;;;;;;3.43;1.73;;;;;;;;;;1666038;84;21087;-47
2022/12/15 03:23:21;;;;;;;3.27;1.70;;;;;;;;;;1668369;84;21423;-51
2022/12/15 03:25:48;;;;;;;4.07;2.10;;;;;;;;;;1667768;84;22496;-48
2022/12/15 03:28:14;;;;;;;4.80;1.40;;;;;;;;;;1667505;84;22056;-48
2022/12/15 03:30:40;;;;;;;5.73;2.33;;;;;;;;;;1664468;84;21168;-48
2022/12/15 03:33:07;;;;;;;2.63;1.50;;;;;;;;;;1661479;84;21076;-46
2022/12/15 03:35:33;;;;;;;3.20;1.60;;;;;;;;;;1666629;84;21073;-50
2022/12/15 03:37:59;;;;;;;4.73;1.70;;;;;;;;;;1668779;84;21083;-49
2022/12/15 03:40:25;;;;;;;2.13;1.33;;;;;;;;;;1666224;84;23005;-48
2022/12/15 03:42:52;;;;;;;2.83;1.70;;;;;;;;;;1669608;84;21077;-50
2022/12/15 03:45:23;;;;;;;9.20;2.10;;;;;;;;;;1644041;84;21195;-50
2022/12/15 03:47:49;;;;;;;2.93;1.80;;;;;;;;;;1634358;86;21697;-49
2022/12/15 03:50:19;;;;;;;6.03;1.50;;;;;;;;;;1628927;86;21089;-48
2022/12/15 03:52:51;;;;;;;4.03;1.40;;;;;;;;;;1628654;86;22076;-48
2022/12/15 03:55:17;;;;;;;6.57;1.80;;;;;;;;;;1631828;86;21140;-47
2022/12/15 03:57:44;;;;;;;4.73;2.10;;;;;;;;;;1630643;86;21149;-47
2022/12/15 04:00:13;;;;;;;3.63;1.87;;;;;;;;;;1627756;86;21534;-48
2022/12/15 04:02:41;;;;;;;3.97;1.80;;;;;;;;;;1631221;86;21098;-48
2022/12/15 04:05:27;;;;;;;6.33;1.90;;;;;;;;;;1625313;86;21925;-48
2022/12/15 04:07:54;;;;;;;3.95;2.27;;;;;;;;;;1625498;86;21597;-49
2022/12/15 04:10:21;;;;;;;4.20;2.00;;;;;;;;;;1627458;86;21058;-49
2022/12/15 04:12:47;;;;;;;2.87;1.70;;;;;;;;;;1623280;86;21071;-48
2022/12/15 04:15:13;;;;;;;4.73;2.17;;;;;;;;;;1624443;86;22291;-51
2022/12/15 04:17:40;;;;;;;3.43;1.83;;;;;;;;;;1625665;86;21821;-49
2022/12/15 04:20:09;;;;;;;3.80;2.57;;;;;;;;;;1634511;86;21030;-48
2022/12/15 04:22:41;;;;;;;3.50;2.40;;;;;;;;;;1634264;86;21002;-49
2022/12/15 05:33:54;;;;;;;5.97;3.87;;;;;;;;;;1571627;89;22317;-51
2022/12/15 05:36:20;;;;;;;7.67;3.03;;;;;;;;;;1569660;89;21086;-49
2022/12/15 05:38:50;;;;;;;6.37;3.70;;;;;;;;;;1573127;89;21866;-48
2022/12/15 05:41:17;;;;;;;5.47;3.10;;;;;;;;;;1569255;89;21166;-49
2022/12/15 05:43:43;;;;;;;8.33;3.70;;;;;;;;;;1573435;89;21063;-50
2022/12/15 05:46:11;;;;;;;5.23;3.30;;;;;;;;;;1571479;89;21074;-49
2022/12/15 05:48:37;;;;;;;6.73;3.43;;;;;;;;;;1564239;89;21680;-49
2022/12/15 05:51:04;;;;;;;4.93;2.37;;;;;;;;;;1562582;90;21928;-50
2022/12/15 05:53:31;;;;;;;8.97;4.37;;;;;;;;;;1565196;90;22480;-49
2022/12/15 05:56:05;;;;;;;6.63;3.43;;;;;;;;;;1568579;90;21187;-49
2022/12/15 05:58:31;;;;;;;6.03;3.22;;;;;;;;;;1569855;90;21567;-48
2022/12/15 06:01:06;;;;;;;5.50;3.53;;;;;;;;;;1563262;90;21120;-49
2022/12/15 06:03:32;;;;;;;5.40;3.23;;;;;;;;;;1539340;91;22567;-50
2022/12/15 06:06:01;;;;;;;4.30;3.00;;;;;;;;;;1538505;91;21089;-50
2022/12/15 06:08:28;;;;;;;4.47;2.43;;;;;;;;;;1538817;91;21458;-48
2022/12/15 06:10:55;;;;;;;6.03;3.63;;;;;;;;;;1537279;91;21073;-49
2022/12/15 06:13:23;;;;;;;6.87;3.10;;;;;;;;;;1565921;90;21100;-51
2022/12/15 06:15:59;;;;;;;5.97;3.40;;;;;;;;;;1567436;90;21273;-49
2022/12/15 06:18:29;;;;;;;6.60;4.57;;;;;;;;;;1567430;90;21140;-50
2022/12/15 06:21:04;;;;;;;6.67;2.77;;;;;;;;;;1541733;91;21111;-50
2022/12/15 06:23:31;;;;;;;4.87;3.17;;;;;;;;;;1537985;91;21626;-49
2022/12/15 06:25:57;;;;;;;5.77;3.50;;;;;;;;;;1562674;90;21573;-51
2022/12/15 06:29:07;;;;;;;6.57;3.93;;;;;;;;;;1791224;78;27852;-49
2022/12/15 06:31:33;;;;;;;7.93;4.87;;;;;;;;;;1776401;79;21069;-50
2022/12/15 06:34:02;;;;;;;8.13;4.90;;;;;;;;;;1777362;79;22535;-49
2022/12/15 06:36:29;;;;;;;9.33;5.83;;;;;;;;;;1778936;79;21029;-50
2022/12/15 06:38:57;;;;;;;9.30;5.70;;;;;;;;;;1779659;78;20991;-49
2022/12/15 06:41:24;;;;;;;8.30;3.90;;;;;;;;;;1782233;79;20994;-49
2022/12/15 06:43:51;;;;;;;8.07;5.47;;;;;;;;;;1780440;79;21092;-50
2022/12/15 06:46:18;;;;;;;7.97;4.13;;;;;;;;;;1763295;80;23836;-48
2022/12/15 06:48:45;;;;;;;7.47;5.10;;;;;;;;;;1760144;80;21060;-50
2022/12/15 06:51:12;;;;;;;6.90;4.73;;;;;;;;;;1766784;80;21937;-50
2022/12/15 06:53:40;;;;;;;6.83;3.57;;;;;;;;;;1770357;80;21530;-49
2022/12/15 06:56:08;;;;;;;8.60;3.77;;;;;;;;;;1775197;80;21326;-49
2022/12/15 06:58:35;;;;;;;6.13;4.87;;;;;;;;;;1772362;79;21343;-49
2022/12/15 07:01:07;;;;;;;7.97;5.50;;;;;;;;;;1767676;80;21069;-48
2022/12/15 07:03:34;;;;;;;9.30;4.53;;;;;;;;;;1768236;79;22244;-49
2022/12/15 07:06:05;;;;;;;8.57;4.00;;;;;;;;;;1765021;79;21426;-50
2022/12/15 07:08:32;;;;;;;7.47;3.73;;;;;;;;;;1771754;80;21120;-49
2022/12/15 07:10:58;;;;;;;6.33;3.83;;;;;;;;;;1772891;80;21861;-49
2022/12/15 07:13:24;;;;;;;10.97;4.30;;;;;;;;;;1766575;80;21103;-50
2022/12/15 07:15:50;;;;;;;4.80;3.00;;;;;;;;;;1767035;80;21531;-50
2022/12/15 07:18:17;;;;;;;4.77;3.13;;;;;;;;;;1764385;80;21069;-49
2022/12/15 07:20:43;;;;;;;6.57;4.03;;;;;;;;;;1767877;79;21089;-51
2022/12/15 07:23:10;;;;;;;5.10;2.93;;;;;;;;;;1768926;79;21817;-49
2022/12/15 07:25:36;;;;;;;6.83;3.87;;;;;;;;;;1761915;79;21468;-48
2022/12/15 07:28:02;;;;;;;6.70;3.40;;;;;;;;;;1772037;79;21562;-50
2022/12/15 07:30:30;;;;;;;7.57;3.60;;;;;;;;;;1770416;79;21111;-48
2022/12/15 07:32:56;;;;;;;10.37;4.90;;;;;;;;;;1768643;79;21215;-48
2022/12/15 07:35:22;;;;;;;7.77;5.53;;;;;;;;;;1768969;79;21756;-48
2022/12/15 07:37:49;;;;;;;7.73;4.50;;;;;;;;;;1768585;79;21122;-49
2022/12/15 07:40:16;;;;;;;9.03;5.20;;;;;;;;;;1771250;79;21032;-50
2022/12/15 07:42:42;;;;;;;5.23;2.97;;;;;;;;;;1772130;79;21069;-52
2022/12/15 07:45:09;;;;;;;4.73;3.10;;;;;;;;;;1772672;79;21065;-50
2022/12/15 07:47:36;;;;;;;5.27;4.10;;;;;;;;;;1772946;79;21841;-49
2022/12/15 07:50:03;;;;;;;5.27;3.60;;;;;;;;;;1771780;79;21146;-51
2022/12/15 07:52:30;;;;;;;7.30;4.17;;;;;;;;;;1771974;79;22766;-49
2022/12/15 07:54:56;;;;;;;5.30;3.40;;;;;;;;;;1770306;79;21117;-50
2022/12/15 07:57:22;;;;;;;4.77;3.37;;;;;;;;;;1766725;79;21128;-48
2022/12/15 07:59:49;;;;;;;5.27;3.60;;;;;;;;;;1764939;79;23700;-50
2022/12/15 08:02:16;;;;;;;4.77;3.07;;;;;;;;;;1770681;79;21080;-49
2022/12/15 08:04:42;;;;;;;3.10;2.10;;;;;;;;;;1761907;79;21160;-50
2022/12/15 08:07:09;;;;;;;3.80;2.17;;;;;;;;;;1768843;79;21076;-48
2022/12/15 08:09:36;;;;;;;4.00;2.30;;;;;;;;;;1760714;79;21145;-48
2022/12/15 08:12:02;;;;;;;6.23;2.77;;;;;;;;;;1765709;79;22454;-49
2022/12/15 08:14:28;;;;;;;5.83;2.57;;;;;;;;;;1766003;79;21073;-50
2022/12/15 08:16:54;;;;;;;4.40;2.70;;;;;;;;;;1769442;79;21144;-48
2022/12/15 08:19:21;;;;;;;2.40;1.87;;;;;;;;;;1769616;79;21505;-49
2022/12/15 08:21:47;;;;;;;4.17;2.07;;;;;;;;;;1759161;79;21083;-49
2022/12/15 08:24:13;;;;;;;3.67;2.73;;;;;;;;;;1763453;79;22738;-50
2022/12/15 08:26:40;;;;;;;3.47;2.43;;;;;;;;;;1769160;79;21620;-51
2022/12/15 08:29:09;;;;;;;3.40;2.30;;;;;;;;;;1759138;79;21045;-49
2022/12/15 08:31:35;;;;;;;2.97;2.03;;;;;;;;;;1759187;80;21927;-48
2022/12/15 08:34:04;;;;;;;2.47;1.83;;;;;;;;;;1755199;79;22156;-49
2022/12/15 08:36:30;;;;;;;2.53;1.63;;;;;;;;;;1754757;80;22495;-48
2022/12/15 08:38:57;;;;;;;3.03;2.00;;;;;;;;;;1749493;79;21267;-48
2022/12/15 08:41:25;;;;;;;2.97;1.47;;;;;;;;;;1755921;80;21763;-48
2022/12/15 08:43:52;;;;;;;3.07;1.53;;;;;;;;;;1761647;80;20993;-48
2022/12/15 08:46:20;;;;;;;3.80;2.30;;;;;;;;;;1754677;80;21053;-52
2022/12/15 08:48:46;;;;;;;3.20;2.10;;;;;;;;;;1756807;80;22520;-49
2022/12/15 08:51:12;;;;;;;3.80;2.57;;;;;;;;;;1748897;80;22466;-48
2022/12/15 08:53:38;;;;;;;2.67;1.60;;;;;;;;;;1743678;80;22141;-48
2022/12/15 08:56:06;;;;;;;3.33;2.20;;;;;;;;;;1759144;80;21110;-50
2022/12/15 08:58:32;;;;;;;3.30;1.80;;;;;;;;;;1758644;80;21561;-48
2022/12/15 09:01:00;;;;;;;3.83;2.07;;;;;;;;;;1756859;80;21813;-48
2022/12/15 09:03:26;;;;;;;2.80;2.00;;;;;;;;;;1756825;80;21492;-50
2022/12/15 09:05:53;;;;;;;3.30;2.37;;;;;;;;;;1759758;80;21065;-49
2022/12/15 09:08:21;;;;;;;2.50;1.90;;;;;;;;;;1759838;80;21057;-51
2022/12/15 09:10:47;;;;;;;2.83;2.37;;;;;;;;;;1748859;79;21117;-50
2022/12/15 09:13:13;;;;;;;4.77;3.20;;;;;;;;;;1755299;80;22425;-50
2022/12/15 09:15:42;;;;;;;5.73;3.70;;;;;;;;;;1759903;79;21606;-48
2022/12/15 09:18:07;;;;;;;2.73;2.13;;;;;;;;;;1755907;80;21818;-48
2022/12/15 09:20:33;;;;;;;3.33;2.23;;;;;;;;;;1759678;80;20988;-50
2022/12/15 09:22:59;;;;;;;6.70;4.60;;;;;;;;;;1753783;80;21017;-51
2022/12/15 09:25:25;;;;;;;3.50;2.37;;;;;;;;;;1750424;80;21881;-48
2022/12/15 09:27:52;;;;;;;5.43;3.50;;;;;;;;;;1759716;80;21006;-48
2022/12/15 09:30:19;;;;;;;5.37;2.43;;;;;;;;;;1749367;80;21093;-49
2022/12/15 09:32:46;;;;;;;4.63;2.50;;;;;;;;;;1754341;80;21046;-48
2022/12/15 09:35:12;;;;;;;3.27;2.27;;;;;;;;;;1750707;80;21006;-49
2022/12/15 09:37:39;;;;;;;6.20;2.67;;;;;;;;;;1754578;80;21836;-48
2022/12/15 09:40:06;;;;;;;9.83;5.57;;;;;;;;;;1756781;80;21441;-48
2022/12/15 09:42:32;;;;;;;30.40;16.93;;;;;;;;;;1749226;80;21849;-49
2022/12/15 09:45:02;;;;;;;20.57;9.67;;;;;;;;;;1756017;79;21068;-49
2022/12/15 09:47:48;;;;;;;11.40;6.13;;;;;;;;;;1755971;80;21073;-49
2022/12/15 09:50:15;;;;;;;10.10;6.33;;;;;;;;;;1757806;80;21954;-51
2022/12/15 09:52:49;;;;;;;15.33;10.03;;;;;;;;;;1747432;80;22089;-47
2022/12/15 09:55:22;;;;;;;6.33;5.73;;;;;;;;;;1744403;80;21347;-49
2022/12/15 09:58:09;;;;;;;6.80;6.10;;;;;;;;;;1738577;80;21044;-49
2022/12/15 10:00:44;;;;;;;7.27;4.60;;;;;;;;;;1756673;80;21033;-48
2022/12/15 10:03:36;;;;;;;3.17;2.33;;;;;;;;;;1754735;80;23781;-48
2022/12/15 10:06:09;;;;;;;2.80;2.57;;;;;;;;;;1753444;79;21073;-48
2022/12/15 10:08:56;;;;;;;3.30;2.93;;;;;;;;;;1754483;79;21048;-51
2022/12/15 10:11:41;;;;;;;2.57;1.87;;;;;;;;;;1753399;80;21132;-48
2022/12/15 10:14:11;;;;;;;2.73;2.33;;;;;;;;;;1754766;80;21062;-49
2022/12/15 10:16:58;;;;;;;1.60;1.30;;;;;;;;;;1757068;79;22399;-50
2022/12/15 10:19:31;;;;;;;1.90;1.57;;;;;;;;;;1747033;80;21062;-50
2022/12/15 10:21:58;;;;;;;1.50;1.10;;;;;;;;;;1752094;80;21357;-49
2022/12/15 10:24:24;;;;;;;1.47;1.07;;;;;;;;;;1751463;80;21120;-49
2022/12/15 10:27:03;;;;;;;2.13;1.17;;;;;;;;;;1741109;80;21147;-49
2022/12/15 10:29:37;;;;;;;1.73;1.13;;;;;;;;;;1756747;80;22311;-49
2022/12/15 10:34:45;;;;;;;1.63;1.10;;;;;;;;;;1775464;78;27714;-49
2022/12/15 10:37:16;;;;;;;1.93;1.73;;;;;;;;;;1773354;78;21682;-48
2022/12/15 10:39:44;;;;;;;1.50;1.37;;;;;;;;;;1771749;78;21848;-49
2022/12/15 10:42:22;;;;;;;2.60;2.40;;;;;;;;;;1773762;78;21080;-49
2022/12/15 10:44:53;;;;;;;2.33;1.70;;;;;;;;;;1767255;78;21088;-48
2022/12/15 10:47:27;;;;;;;1.80;1.30;;;;;;;;;;1757519;79;21065;-49
2022/12/15 10:49:55;;;;;;;1.10;0.90;;;;;;;;;;1758345;79;21390;-49
2022/12/15 10:52:26;;;;;;;1.67;1.10;;;;;;;;;;1752497;79;21110;-51
2022/12/15 10:54:53;;;;;;;1.70;1.00;;;;;;;;;;1759541;79;21162;-48
2022/12/15 10:57:27;;;;;;;1.23;0.90;;;;;;;;;;1757193;79;22486;-51
2022/12/15 10:59:57;;;;;;;1.77;1.00;;;;;;;;;;1755568;79;21105;-52
2022/12/15 11:02:31;;;;;;;2.97;1.70;;;;;;;;;;1725971;80;21037;-50
2022/12/15 11:05:00;;;;;;;3.70;3.33;;;;;;;;;;1752280;79;22455;-49
2022/12/15 11:07:33;;;;;;;3.57;3.03;;;;;;;;;;1760561;79;21112;-48
2022/12/15 11:09:59;;;;;;;7.07;5.17;;;;;;;;;;1758126;79;21022;-50
2022/12/15 11:15:29;;;;;;;10.67;7.27;;;;;;;;;;1755689;79;22174;-50
2022/12/15 11:18:02;;;;;;;8.17;5.47;;;;;;;;;;1758524;79;21892;-49
2022/12/15 11:20:37;;;;;;;6.57;4.43;;;;;;;;;;1756734;79;21323;-50
2022/12/15 11:23:13;;;;;;;11.73;6.57;;;;;;;;;;1756620;79;21054;-49
2022/12/15 11:25:42;;;;;;;3.77;2.53;;;;;;;;;;1759001;79;21043;-50
2022/12/15 11:28:14;;;;;;;4.97;2.77;;;;;;;;;;1754616;79;21653;-50
2022/12/15 11:30:46;;;;;;;20.90;9.70;;;;;;;;;;1758409;79;21815;-49
2022/12/15 11:33:12;;;;;;;56.20;22.37;;;;;;;;;;1753758;79;21530;-49
2022/12/15 11:35:49;;;;;;;26.50;10.00;;;;;;;;;;1704904;80;21053;-50
2022/12/15 11:38:38;;;;;;;11.03;4.87;;;;;;;;;;1749642;79;21103;-50
2022/12/15 11:41:18;;;;;;;22.70;8.93;;;;;;;;;;1745549;79;21035;-49
2022/12/15 11:43:59;;;;;;;7.00;3.67;;;;;;;;;;1743513;79;21820;-50
2022/12/15 11:46:40;;;;;;;14.23;6.60;;;;;;;;;;1741909;79;21627;-49
2022/12/15 11:49:19;;;;;;;14.53;6.73;;;;;;;;;;1748114;79;21505;-50
2022/12/15 11:51:55;;;;;;;22.93;11.23;;;;;;;;;;1745736;79;21081;-49
2022/12/15 11:54:38;;;;;;;13.93;6.63;;;;;;;;;;1740928;79;21156;-49
2022/12/15 11:57:43;;;;;;;9.00;4.23;;;;;;;;;;1743680;79;21868;-47
2022/12/15 12:00:18;;;;;;;9.35;5.40;;;;;;;;;;1736757;79;21018;-52
2022/12/15 12:03:00;;;;;;;8.53;5.65;;;;;;;;;;1744242;79;21027;-49
2022/12/15 12:05:50;;;;;;;2.53;2.20;;;;;;;;;;1739669;79;21491;-51
2022/12/15 12:08:37;;;;;;;3.00;2.23;;;;;;;;;;1742560;79;21391;-50
2022/12/15 12:11:34;;;;;;;3.10;2.33;;;;;;;;;;1742247;79;21835;-51
2022/12/15 12:14:16;;;;;;;3.63;2.17;;;;;;;;;;1738782;79;21578;-50
2022/12/15 12:16:46;;;;;;;11.90;6.67;;;;;;;;;;1744399;79;21038;-49
2022/12/15 12:19:14;;;;;;;9.87;6.87;;;;;;;;;;1737574;79;21054;-51
2022/12/15 12:21:46;;;;;;;17.87;8.43;;;;;;;;;;1742108;79;21042;-49
2022/12/15 12:24:30;;;;;;;10.30;5.67;;;;;;;;;;1746596;79;22007;-50
2022/12/15 12:27:02;;;;;;;9.05;5.35;;;;;;;;;;1743631;80;21329;-50
2022/12/15 12:29:33;;;;;;;5.10;3.10;;;;;;;;;;1745122;79;20991;-50
2022/12/15 12:32:13;;;;;;;7.03;4.43;;;;;;;;;;1743517;79;20995;-51
2022/12/15 12:35:03;;;;;;;6.47;3.73;;;;;;;;;;1745211;80;20980;-49
2022/12/15 12:37:43;;;;;;;2.80;2.20;;;;;;;;;;1744749;79;21806;-49
2022/12/15 12:40:18;;;;;;;3.87;2.53;;;;;;;;;;1738366;79;20974;-51
2022/12/15 12:42:48;;;;;;;6.87;4.80;;;;;;;;;;1743616;79;21011;-49
2022/12/15 12:45:15;;;;;;;4.90;2.63;;;;;;;;;;1743428;79;20986;-50
2022/12/15 12:47:43;;;;;;;8.80;7.60;;;;;;;;;;1740339;79;21066;-50
2022/12/15 12:50:16;;;;;;;6.37;4.93;;;;;;;;;;1745409;79;21761;-47
2022/12/15 12:52:50;;;;;;;2.10;1.60;;;;;;;;;;1743486;79;21493;-49
2022/12/15 12:55:25;;;;;;;;;;;;;;;;;;1749851;79;20984;-50
2022/12/15 12:57:52;;;;;;;2.45;1.40;;;;;;;;;;1746000;79;20462;-49
2022/12/15 13:00:30;;;;;;;2.90;1.80;;;;;;;;;;1747344;79;21504;-50
2022/12/15 13:03:18;;;;;;;2.87;1.77;;;;;;;;;;1742954;79;21313;-51
2022/12/15 13:05:45;;;;;;;2.70;1.60;;;;;;;;;;1744674;79;21070;-52
2022/12/15 13:08:16;;;;;;;2.60;1.60;;;;;;;;;;1742203;79;21042;-49
2022/12/15 13:10:47;;;;;;;4.90;1.70;;;;;;;;;;1741671;79;21289;-49
2022/12/15 13:13:32;;;;;;;2.47;1.67;;;;;;;;;;1745916;79;21990;-49
2022/12/15 13:16:20;;;;;;;3.63;2.30;;;;;;;;;;1739772;79;21247;-49
2022/12/15 13:19:05;;;;;;;9.07;6.63;;;;;;;;;;1740465;79;21405;-50
2022/12/15 13:21:45;;;;;;;13.27;8.93;;;;;;;;;;1741566;79;21034;-51
2022/12/15 13:24:33;;;;;;;4.13;2.57;;;;;;;;;;1739887;79;21065;-50
2022/12/15 13:27:12;;;;;;;6.13;3.73;;;;;;;;;;1737284;79;21199;-49
2022/12/15 13:30:01;;;;;;;15.13;8.77;;;;;;;;;;1740273;79;21845;-49
2022/12/15 13:32:33;;;;;;;8.87;5.30;;;;;;;;;;1743358;79;21039;-50
2022/12/15 13:35:15;;;;;;;8.70;4.27;;;;;;;;;;1737732;80;21025;-51
2022/12/15 13:38:06;;;;;;;5.83;4.00;;;;;;;;;;1735295;80;21084;-50
2022/12/15 13:40:35;;;;;;;4.30;3.07;;;;;;;;;;1735295;80;21037;-49
2022/12/15 13:43:07;;;;;;;5.83;3.17;;;;;;;;;;1728017;80;21068;-52
2022/12/15 13:45:43;;;;;;;3.33;2.17;;;;;;;;;;1737221;80;21104;-50
2022/12/15 13:48:18;;;;;;;3.43;3.13;;;;;;;;;;1744123;80;21048;-49
2022/12/15 13:50:48;;;;;;;2.53;2.33;;;;;;;;;;1737732;80;21833;-50
2022/12/15 13:53:18;;;;;;;4.07;2.37;;;;;;;;;;1736579;80;21076;-52
2022/12/15 13:55:54;;;;;;;5.20;2.67;;;;;;;;;;1736878;80;21805;-51
2022/12/15 13:58:20;;;;;;;4.13;2.57;;;;;;;;;;1740398;80;22190;-50
2022/12/15 14:00:52;;;;;;;4.00;3.07;;;;;;;;;;1742131;80;21071;-51
2022/12/15 14:03:19;;;;;;;2.87;1.70;;;;;;;;;;1738472;80;21107;-50
2022/12/15 14:05:52;;;;;;;4.97;2.97;;;;;;;;;;1735500;80;21005;-51
2022/12/15 14:08:18;;;;;;;3.97;2.73;;;;;;;;;;1739110;80;21959;-53
2022/12/15 14:10:50;;;;;;;4.73;2.97;;;;;;;;;;1737618;80;20989;-49
2022/12/15 14:13:28;;;;;;;3.70;2.17;;;;;;;;;;1738539;80;20969;-51
2022/12/15 14:15:57;;;;;;;2.37;2.10;;;;;;;;;;1734346;80;21429;-50
2022/12/15 14:18:33;;;;;;;4.17;2.47;;;;;;;;;;1741961;80;21021;-50
2022/12/15 14:21:00;;;;;;;4.13;3.00;;;;;;;;;;1744699;80;21329;-50
2022/12/15 14:23:28;;;;;;;17.03;10.30;;;;;;;;;;1738978;80;21562;-48
2022/12/15 14:26:04;;;;;;;7.27;4.73;;;;;;;;;;1736413;80;21295;-50
2022/12/15 14:28:32;;;;;;;7.20;4.60;;;;;;;;;;1738643;80;21072;-49
2022/12/15 14:31:07;;;;;;;21.97;9.10;;;;;;;;;;1737295;80;21057;-50
2022/12/15 14:33:34;;;;;;;11.50;7.03;;;;;;;;;;1729109;80;21945;-50
2022/12/15 14:36:01;;;;;;;7.83;4.53;;;;;;;;;;1747502;79;21455;-49
2022/12/15 14:38:30;;;;;;;8.20;6.83;;;;;;;;;;1744786;79;21138;-50
2022/12/15 14:40:56;;;;;;;9.90;4.17;;;;;;;;;;1743665;79;21046;-48
2022/12/15 14:43:28;;;;;;;6.17;5.07;;;;;;;;;;1741333;79;21038;-50
2022/12/15 14:45:56;;;;;;;4.00;3.13;;;;;;;;;;1746144;79;21773;-50
2022/12/15 14:48:28;;;;;;;8.43;3.63;;;;;;;;;;1739586;79;21091;-50
2022/12/15 14:50:59;;;;;;;7.07;3.73;;;;;;;;;;1742905;79;21421;-49
2022/12/15 14:53:27;;;;;;;6.37;3.57;;;;;;;;;;1744959;79;21061;-51
2022/12/15 14:55:54;;;;;;;6.23;2.90;;;;;;;;;;1748046;79;21062;-48
2022/12/15 14:58:24;;;;;;;6.87;3.90;;;;;;;;;;1747094;79;21940;-48
2022/12/15 15:02:02;;;;;;;4.83;3.33;;;;;;;;;;1775485;78;27368;-51
2022/12/15 15:04:31;;;;;;;4.50;3.60;;;;;;;;;;1744905;80;21061;-51
2022/12/15 15:07:05;;;;;;;4.90;4.00;;;;;;;;;;1752558;80;21971;-49
2022/12/15 15:09:34;;;;;;;7.15;4.87;;;;;;;;;;1737549;80;20953;-52
2022/12/15 15:12:17;;;;;;;4.77;4.17;;;;;;;;;;1737221;80;20974;-50
2022/12/15 15:15:04;;;;;;;5.03;3.77;;;;;;;;;;1741627;80;20985;-53
2022/12/15 15:17:33;;;;;;;5.07;3.70;;;;;;;;;;1745558;80;21437;-49
2022/12/15 15:20:01;;;;;;;6.00;3.90;;;;;;;;;;1734370;80;21927;-51
2022/12/15 15:22:38;;;;;;;6.97;4.53;;;;;;;;;;1743727;80;20958;-48
2022/12/15 15:25:29;;;;;;;5.70;3.83;;;;;;;;;;1742601;80;20998;-49
2022/12/15 15:28:14;;;;;;;7.73;4.30;;;;;;;;;;1740494;80;20975;-50
2022/12/15 15:30:48;;;;;;;5.85;4.50;;;;;;;;;;1740526;80;21362;-49
2022/12/15 15:33:14;;;;;;;8.08;4.37;;;;;;;;;;1745447;80;22271;-49
2022/12/15 15:35:41;;;;;;;8.00;4.80;;;;;;;;;;1739300;80;20974;-50
2022/12/15 15:38:23;;;;;;;7.60;5.60;;;;;;;;;;1742097;80;21024;-49
2022/12/15 15:40:57;;;;;;;11.90;8.30;;;;;;;;;;1742439;80;21014;-51
2022/12/15 15:43:24;;;;;;;9.83;7.65;;;;;;;;;;1737173;80;21082;-48
2022/12/15 15:45:54;;;;;;;8.37;5.23;;;;;;;;;;1727907;80;21908;-51
2022/12/15 15:48:24;;;;;;;5.00;4.37;;;;;;;;;;1722179;80;21100;-48
2022/12/15 15:50:50;;;;;;;6.37;4.60;;;;;;;;;;1672628;83;21620;-51
2022/12/15 15:53:18;;;;;;;10.83;5.43;;;;;;;;;;1695298;82;21080;-49
2022/12/15 15:55:46;;;;;;;10.33;5.00;;;;;;;;;;1696444;82;22203;-50
2022/12/15 15:58:12;;;;;;;7.30;4.73;;;;;;;;;;1672523;83;21791;-48
2022/12/15 16:00:38;;;;;;;6.47;5.17;;;;;;;;;;1680930;83;21064;-49
2022/12/15 16:03:05;;;;;;;6.73;4.80;;;;;;;;;;1676866;83;21130;-52
2022/12/15 16:05:31;;;;;;;7.20;6.17;;;;;;;;;;1706184;82;21521;-51
2022/12/15 16:07:58;;;;;;;7.63;4.57;;;;;;;;;;1697030;83;21090;-50
2022/12/15 16:10:24;;;;;;;8.03;6.07;;;;;;;;;;1706287;82;21858;-52
2022/12/15 16:12:52;;;;;;;9.87;6.70;;;;;;;;;;1681795;83;21418;-51
2022/12/15 16:15:24;;;;;;;7.83;6.47;;;;;;;;;;1678756;83;21075;-51
2022/12/15 16:17:50;;;;;;;7.70;6.33;;;;;;;;;;1681059;83;21671;-50
2022/12/15 16:20:18;;;;;;;7.90;6.40;;;;;;;;;;1702394;82;21056;-51
2022/12/15 16:22:55;;;;;;;9.07;6.43;;;;;;;;;;1707120;82;21843;-50
2022/12/15 16:25:32;;;;;;;8.87;5.83;;;;;;;;;;1686145;83;21156;-48
2022/12/15 16:27:59;;;;;;;9.70;5.70;;;;;;;;;;1697403;82;21083;-51
2022/12/15 16:30:27;;;;;;;11.07;6.17;;;;;;;;;;1675459;83;21142;-48
2022/12/15 16:32:53;;;;;;;12.27;6.77;;;;;;;;;;1676862;83;21028;-50
2022/12/15 16:35:20;;;;;;;7.97;6.73;;;;;;;;;;1680146;83;22011;-48
2022/12/15 16:37:47;;;;;;;9.30;7.57;;;;;;;;;;1681769;83;21341;-51
2022/12/15 16:40:20;;;;;;;9.10;6.27;;;;;;;;;;1674711;83;21132;-51
2022/12/15 16:42:49;;;;;;;11.73;7.13;;;;;;;;;;1680243;83;21138;-49
2022/12/15 16:45:17;;;;;;;8.07;6.33;;;;;;;;;;1677195;83;21513;-48
2022/12/15 16:47:44;;;;;;;8.30;6.83;;;;;;;;;;1674776;83;21878;-49
2022/12/15 16:50:14;;;;;;;9.03;7.27;;;;;;;;;;1698722;82;21420;-49
2022/12/15 16:52:45;;;;;;;12.27;8.47;;;;;;;;;;1683177;83;21152;-51
2022/12/15 16:55:26;;;;;;;13.37;8.30;;;;;;;;;;1673916;83;21557;-52
2022/12/15 16:57:55;;;;;;;12.00;9.07;;;;;;;;;;1675423;83;21160;-49
2022/12/15 17:00:23;;;;;;;12.67;8.97;;;;;;;;;;1650020;83;21809;-49
2022/12/15 17:02:49;;;;;;;8.67;5.83;;;;;;;;;;1674314;83;20980;-49
2022/12/15 17:05:18;;;;;;;14.20;9.43;;;;;;;;;;1705947;82;21073;-50
2022/12/15 17:07:52;;;;;;;13.33;9.13;;;;;;;;;;1679649;83;21099;-49
2022/12/15 17:10:21;;;;;;;16.02;10.25;;;;;;;;;;1693691;82;21056;-50
2022/12/15 17:12:47;;;;;;;12.47;7.90;;;;;;;;;;1671810;83;21854;-49
2022/12/15 17:15:25;;;;;;;15.07;10.03;;;;;;;;;;1679780;83;21089;-50
2022/12/15 17:17:53;;;;;;;20.17;9.90;;;;;;;;;;1674275;83;21079;-49
2022/12/15 17:20:21;;;;;;;11.40;8.53;;;;;;;;;;1679633;83;21095;-49
2022/12/15 17:22:49;;;;;;;13.90;10.27;;;;;;;;;;1675610;83;21847;-48
2022/12/15 17:25:21;;;;;;;19.50;12.97;;;;;;;;;;1692663;82;23177;-48
2022/12/15 17:27:48;;;;;;;13.83;9.10;;;;;;;;;;1696067;82;21422;-50
2022/12/15 17:30:15;;;;;;;13.10;8.47;;;;;;;;;;1676401;83;21048;-48
2022/12/15 17:32:42;;;;;;;14.47;9.40;;;;;;;;;;1676329;83;21083;-48